sensor_id;sensor_type;location;lat;lon;timestamp;pressure;altitude;pressure_sealevel;temperature;humidity
46211;BME280;52144;48.040;-1.594;2022-08-21T00:00:26;101278.56;;;19.33;93.66
46211;BME280;52144;48.040;-1.594;2022-08-21T00:02:58;101283.75;;;19.36;93.42
46211;BME280;52144;48.040;-1.594;2022-08-21T00:05:28;101273.53;;;19.16;94.67
46211;BME280;52144;48.040;-1.594;2022-08-21T00:07:56;101273.44;;;19.17;95.28
46211;BME280;52144;48.040;-1.594;2022-08-21T00:10:25;101270.38;;;19.22;95.81
46211;BME280;52144;48.040;-1.594;2022-08-21T00:12:53;101276.59;;;19.11;95.86
46211;BME280;52144;48.040;-1.594;2022-08-21T00:15:25;101281.25;;;19.09;94.78
46211;BME280;52144;48.040;-1.594;2022-08-21T00:17:56;101285.34;;;19.02;96.23
46211;BME280;52144;48.040;-1.594;2022-08-21T00:20:24;101270.44;;;18.96;96.28
46211;BME280;52144;48.040;-1.594;2022-08-21T00:22:52;101270.47;;;18.83;96.55
46211;BME280;52144;48.040;-1.594;2022-08-21T00:25:23;101273.06;;;18.85;97.32
46211;BME280;52144;48.040;-1.594;2022-08-21T00:27:51;101274.13;;;18.82;97.44
46211;BME280;52144;48.040;-1.594;2022-08-21T00:30:21;101271.09;;;18.74;97.01
46211;BME280;52144;48.040;-1.594;2022-08-21T00:32:50;101265.94;;;18.71;100.00
46211;BME280;52144;48.040;-1.594;2022-08-21T00:35:24;101268.63;;;18.71;98.23
46211;BME280;52144;48.040;-1.594;2022-08-21T00:37:53;101267.19;;;18.78;99.03
46211;BME280;52144;48.040;-1.594;2022-08-21T00:40:26;101266.66;;;18.99;97.77
46211;BME280;52144;48.040;-1.594;2022-08-21T00:42:55;101262.91;;;18.89;98.19
46211;BME280;52144;48.040;-1.594;2022-08-21T00:45:24;101260.09;;;18.90;97.47
46211;BME280;52144;48.040;-1.594;2022-08-21T00:47:54;101266.59;;;18.88;97.19
46211;BME280;52144;48.040;-1.594;2022-08-21T00:50:26;101262.91;;;18.89;97.83
46211;BME280;52144;48.040;-1.594;2022-08-21T00:52:56;101261.38;;;18.97;97.62
46211;BME280;52144;48.040;-1.594;2022-08-21T00:55:25;101265.84;;;18.86;96.51
46211;BME280;52144;48.040;-1.594;2022-08-21T00:57:57;101274.69;;;18.88;96.92
46211;BME280;52144;48.040;-1.594;2022-08-21T01:00:29;101271.19;;;18.98;96.21
46211;BME280;52144;48.040;-1.594;2022-08-21T01:03:00;101274.78;;;18.86;97.87
46211;BME280;52144;48.040;-1.594;2022-08-21T01:05:34;101264.31;;;18.81;96.91
46211;BME280;52144;48.040;-1.594;2022-08-21T01:08:03;101263.22;;;18.71;96.63
46211;BME280;52144;48.040;-1.594;2022-08-21T01:10:31;101255.66;;;18.63;97.95
46211;BME280;52144;48.040;-1.594;2022-08-21T01:13:00;101253.84;;;18.64;97.46
46211;BME280;52144;48.040;-1.594;2022-08-21T01:15:30;101246.50;;;18.53;98.73
46211;BME280;52144;48.040;-1.594;2022-08-21T01:17:59;101252.88;;;18.65;99.68
46211;BME280;52144;48.040;-1.594;2022-08-21T01:20:28;101253.97;;;18.62;99.42
46211;BME280;52144;48.040;-1.594;2022-08-21T01:22:59;101248.00;;;18.57;99.68
46211;BME280;52144;48.040;-1.594;2022-08-21T01:25:27;101242.19;;;18.51;100.00
46211;BME280;52144;48.040;-1.594;2022-08-21T01:27:55;101241.41;;;18.74;99.16
46211;BME280;52144;48.040;-1.594;2022-08-21T01:30:27;101245.59;;;18.78;98.27
46211;BME280;52144;48.040;-1.594;2022-08-21T01:32:55;101238.94;;;18.84;97.96
46211;BME280;52144;48.040;-1.594;2022-08-21T01:35:24;101240.66;;;18.72;98.79
46211;BME280;52144;48.040;-1.594;2022-08-21T01:37:52;101245.66;;;18.53;100.00
46211;BME280;52144;48.040;-1.594;2022-08-21T01:40:21;101246.59;;;18.52;99.39
46211;BME280;52144;48.040;-1.594;2022-08-21T01:42:49;101246.53;;;18.40;100.00
46211;BME280;52144;48.040;-1.594;2022-08-21T01:45:17;101249.31;;;18.39;100.00
46211;BME280;52144;48.040;-1.594;2022-08-21T01:47:45;101257.94;;;18.57;100.00
46211;BME280;52144;48.040;-1.594;2022-08-21T01:50:15;101261.41;;;18.46;100.00
46211;BME280;52144;48.040;-1.594;2022-08-21T01:52:43;101255.81;;;18.36;100.00
46211;BME280;52144;48.040;-1.594;2022-08-21T01:55:12;101255.25;;;18.18;100.00
46211;BME280;52144;48.040;-1.594;2022-08-21T01:57:42;101250.19;;;18.14;100.00
46211;BME280;52144;48.040;-1.594;2022-08-21T02:00:12;101251.69;;;18.18;100.00
46211;BME280;52144;48.040;-1.594;2022-08-21T02:02:42;101251.78;;;18.16;100.00
46211;BME280;52144;48.040;-1.594;2022-08-21T02:05:11;101250.28;;;18.25;100.00
46211;BME280;52144;48.040;-1.594;2022-08-21T02:07:40;101256.00;;;18.20;100.00
46211;BME280;52144;48.040;-1.594;2022-08-21T02:10:12;101251.56;;;18.07;100.00
46211;BME280;52144;48.040;-1.594;2022-08-21T02:12:41;101252.50;;;17.93;100.00
46211;BME280;52144;48.040;-1.594;2022-08-21T02:15:09;101250.38;;;18.11;100.00
46211;BME280;52144;48.040;-1.594;2022-08-21T02:17:39;101255.25;;;18.06;100.00
46211;BME280;52144;48.040;-1.594;2022-08-21T02:20:09;101249.84;;;18.06;100.00
46211;BME280;52144;48.040;-1.594;2022-08-21T02:22:36;101245.63;;;18.14;100.00
46211;BME280;52144;48.040;-1.594;2022-08-21T02:25:05;101247.03;;;17.67;100.00
46211;BME280;52144;48.040;-1.594;2022-08-21T02:27:38;101257.59;;;17.70;100.00
46211;BME280;52144;48.040;-1.594;2022-08-21T02:30:12;101262.09;;;17.57;100.00
46211;BME280;52144;48.040;-1.594;2022-08-21T02:32:40;101262.19;;;17.55;100.00
46211;BME280;52144;48.040;-1.594;2022-08-21T02:35:10;101276.56;;;17.69;100.00
46211;BME280;52144;48.040;-1.594;2022-08-21T02:37:45;101270.69;;;17.49;100.00
46211;BME280;52144;48.040;-1.594;2022-08-21T02:40:14;101278.94;;;17.46;100.00
46211;BME280;52144;48.040;-1.594;2022-08-21T02:42:42;101276.09;;;17.62;100.00
46211;BME280;52144;48.040;-1.594;2022-08-21T02:45:12;101272.06;;;17.69;100.00
46211;BME280;52144;48.040;-1.594;2022-08-21T02:47:47;101267.06;;;17.63;100.00
46211;BME280;52144;48.040;-1.594;2022-08-21T02:50:18;101262.63;;;17.62;100.00
46211;BME280;52144;48.040;-1.594;2022-08-21T02:52:48;101277.53;;;17.68;100.00
46211;BME280;52144;48.040;-1.594;2022-08-21T02:55:21;101274.25;;;17.62;100.00
46211;BME280;52144;48.040;-1.594;2022-08-21T02:57:49;101277.53;;;17.40;100.00
46211;BME280;52144;48.040;-1.594;2022-08-21T03:00:19;101279.72;;;17.48;100.00
46211;BME280;52144;48.040;-1.594;2022-08-21T03:02:48;101265.31;;;17.62;100.00
46211;BME280;52144;48.040;-1.594;2022-08-21T03:05:16;101259.78;;;17.23;100.00
46211;BME280;52144;48.040;-1.594;2022-08-21T03:07:45;101253.44;;;17.24;100.00
46211;BME280;52144;48.040;-1.594;2022-08-21T03:10:14;101253.44;;;17.52;100.00
46211;BME280;52144;48.040;-1.594;2022-08-21T03:12:42;101253.00;;;17.45;100.00
46211;BME280;52144;48.040;-1.594;2022-08-21T03:15:12;101256.00;;;17.40;100.00
46211;BME280;52144;48.040;-1.594;2022-08-21T03:17:41;101255.59;;;17.05;100.00
46211;BME280;52144;48.040;-1.594;2022-08-21T03:20:10;101251.09;;;17.33;100.00
46211;BME280;52144;48.040;-1.594;2022-08-21T03:22:38;101253.88;;;17.58;100.00
46211;BME280;52144;48.040;-1.594;2022-08-21T03:25:06;101249.66;;;17.54;100.00
46211;BME280;52144;48.040;-1.594;2022-08-21T03:27:37;101250.66;;;17.53;100.00
46211;BME280;52144;48.040;-1.594;2022-08-21T03:30:09;101240.22;;;17.61;100.00
46211;BME280;52144;48.040;-1.594;2022-08-21T03:32:37;101247.31;;;17.62;100.00
46211;BME280;52144;48.040;-1.594;2022-08-21T03:35:08;101239.16;;;17.37;100.00
46211;BME280;52144;48.040;-1.594;2022-08-21T03:37:36;101235.66;;;17.49;100.00
46211;BME280;52144;48.040;-1.594;2022-08-21T03:40:06;101236.75;;;17.59;100.00
46211;BME280;52144;48.040;-1.594;2022-08-21T03:42:35;101239.16;;;17.37;100.00
46211;BME280;52144;48.040;-1.594;2022-08-21T03:45:03;101237.81;;;17.30;100.00
46211;BME280;52144;48.040;-1.594;2022-08-21T03:47:31;101245.50;;;17.36;100.00
46211;BME280;52144;48.040;-1.594;2022-08-21T03:49:59;101237.41;;;17.36;100.00
46211;BME280;52144;48.040;-1.594;2022-08-21T03:52:28;101240.03;;;17.37;100.00
46211;BME280;52144;48.040;-1.594;2022-08-21T03:54:56;101226.91;;;17.45;100.00
46211;BME280;52144;48.040;-1.594;2022-08-21T03:57:24;101232.50;;;17.42;100.00
46211;BME280;52144;48.040;-1.594;2022-08-21T03:59:52;101231.22;;;17.48;100.00
46211;BME280;52144;48.040;-1.594;2022-08-21T04:02:21;101232.59;;;17.41;100.00
46211;BME280;52144;48.040;-1.594;2022-08-21T04:04:48;101233.28;;;17.44;100.00
46211;BME280;52144;48.040;-1.594;2022-08-21T04:07:16;101229.94;;;17.54;100.00
46211;BME280;52144;48.040;-1.594;2022-08-21T04:09:45;101218.56;;;17.63;100.00
46211;BME280;52144;48.040;-1.594;2022-08-21T04:12:13;101224.81;;;17.63;100.00
46211;BME280;52144;48.040;-1.594;2022-08-21T04:14:41;101230.38;;;17.20;100.00
46211;BME280;52144;48.040;-1.594;2022-08-21T04:17:09;101234.25;;;17.02;100.00
46211;BME280;52144;48.040;-1.594;2022-08-21T04:19:37;101228.84;;;17.16;100.00
46211;BME280;52144;48.040;-1.594;2022-08-21T04:22:04;101230.63;;;17.30;100.00
46211;BME280;52144;48.040;-1.594;2022-08-21T04:24:32;101227.06;;;17.30;100.00
46211;BME280;52144;48.040;-1.594;2022-08-21T04:27:02;101227.59;;;17.22;100.00
46211;BME280;52144;48.040;-1.594;2022-08-21T04:29:30;101234.38;;;17.28;100.00
46211;BME280;52144;48.040;-1.594;2022-08-21T04:32:01;101225.06;;;17.19;100.00
46211;BME280;52144;48.040;-1.594;2022-08-21T04:34:29;101227.63;;;17.35;100.00
46211;BME280;52144;48.040;-1.594;2022-08-21T04:36:57;101226.47;;;17.39;100.00
46211;BME280;52144;48.040;-1.594;2022-08-21T04:39:25;101227.75;;;17.46;100.00
46211;BME280;52144;48.040;-1.594;2022-08-21T04:41:55;101231.03;;;17.51;100.00
46211;BME280;52144;48.040;-1.594;2022-08-21T04:44:24;101226.19;;;17.56;100.00
46211;BME280;52144;48.040;-1.594;2022-08-21T04:46:52;101223.72;;;17.53;100.00
46211;BME280;52144;48.040;-1.594;2022-08-21T04:49:20;101223.97;;;17.63;100.00
46211;BME280;52144;48.040;-1.594;2022-08-21T04:51:47;101229.78;;;17.70;100.00
46211;BME280;52144;48.040;-1.594;2022-08-21T04:54:19;101232.47;;;17.70;100.00
46211;BME280;52144;48.040;-1.594;2022-08-21T04:56:50;101230.88;;;17.80;100.00
46211;BME280;52144;48.040;-1.594;2022-08-21T04:59:22;101233.28;;;17.84;100.00
46211;BME280;52144;48.040;-1.594;2022-08-21T05:01:53;101241.41;;;17.70;100.00
46211;BME280;52144;48.040;-1.594;2022-08-21T05:04:25;101246.56;;;17.60;100.00
46211;BME280;52144;48.040;-1.594;2022-08-21T05:06:55;101239.66;;;17.56;100.00
46211;BME280;52144;48.040;-1.594;2022-08-21T05:09:25;101246.88;;;17.56;100.00
46211;BME280;52144;48.040;-1.594;2022-08-21T05:11:53;101242.19;;;17.72;100.00
46211;BME280;52144;48.040;-1.594;2022-08-21T05:14:21;101240.91;;;17.78;100.00
46211;BME280;52144;48.040;-1.594;2022-08-21T05:16:49;101238.50;;;17.88;100.00
46211;BME280;52144;48.040;-1.594;2022-08-21T05:19:19;101241.44;;;17.97;100.00
46211;BME280;52144;48.040;-1.594;2022-08-21T05:21:47;101247.56;;;17.99;100.00
46211;BME280;52144;48.040;-1.594;2022-08-21T05:24:15;101244.53;;;17.91;100.00
46211;BME280;52144;48.040;-1.594;2022-08-21T05:26:44;101244.53;;;17.91;100.00
46211;BME280;52144;48.040;-1.594;2022-08-21T05:29:14;101240.66;;;17.95;100.00
46211;BME280;52144;48.040;-1.594;2022-08-21T05:31:44;101252.06;;;17.59;100.00
46211;BME280;52144;48.040;-1.594;2022-08-21T05:34:11;101251.53;;;17.67;100.00
46211;BME280;52144;48.040;-1.594;2022-08-21T05:36:44;101249.59;;;17.69;100.00
46211;BME280;52144;48.040;-1.594;2022-08-21T05:39:12;101253.63;;;17.76;100.00
46211;BME280;52144;48.040;-1.594;2022-08-21T05:41:40;101254.66;;;17.60;100.00
46211;BME280;52144;48.040;-1.594;2022-08-21T05:44:08;101260.41;;;17.41;100.00
46211;BME280;52144;48.040;-1.594;2022-08-21T05:46:36;101264.88;;;17.55;100.00
46211;BME280;52144;48.040;-1.594;2022-08-21T05:49:04;101264.38;;;17.63;100.00
46211;BME280;52144;48.040;-1.594;2022-08-21T05:51:32;101266.31;;;17.61;100.00
46211;BME280;52144;48.040;-1.594;2022-08-21T05:54:01;101270.03;;;17.73;100.00
46211;BME280;52144;48.040;-1.594;2022-08-21T05:56:29;101267.41;;;17.71;100.00
46211;BME280;52144;48.040;-1.594;2022-08-21T05:58:57;101270.78;;;17.75;100.00
46211;BME280;52144;48.040;-1.594;2022-08-21T06:01:25;101284.41;;;17.86;100.00
46211;BME280;52144;48.040;-1.594;2022-08-21T06:03:52;101277.66;;;17.93;100.00
46211;BME280;52144;48.040;-1.594;2022-08-21T06:06:23;101285.94;;;17.90;100.00
46211;BME280;52144;48.040;-1.594;2022-08-21T06:08:51;101286.09;;;18.01;100.00
46211;BME280;52144;48.040;-1.594;2022-08-21T06:11:20;101287.94;;;18.14;100.00
46211;BME280;52144;48.040;-1.594;2022-08-21T06:13:54;101291.06;;;18.08;100.00
46211;BME280;52144;48.040;-1.594;2022-08-21T06:16:22;101290.28;;;18.06;100.00
46211;BME280;52144;48.040;-1.594;2022-08-21T06:18:50;101278.00;;;18.01;100.00
46211;BME280;52144;48.040;-1.594;2022-08-21T06:21:17;101281.88;;;18.10;100.00
46211;BME280;52144;48.040;-1.594;2022-08-21T06:23:45;101275.41;;;18.13;100.00
46211;BME280;52144;48.040;-1.594;2022-08-21T06:26:14;101281.88;;;18.23;100.00
46211;BME280;52144;48.040;-1.594;2022-08-21T06:28:43;101285.16;;;18.28;100.00
46211;BME280;52144;48.040;-1.594;2022-08-21T06:31:13;101275.22;;;18.29;100.00
46211;BME280;52144;48.040;-1.594;2022-08-21T06:33:41;101275.44;;;18.38;100.00
46211;BME280;52144;48.040;-1.594;2022-08-21T06:36:09;101261.28;;;18.48;100.00
46211;BME280;52144;48.040;-1.594;2022-08-21T06:38:37;101264.53;;;18.53;100.00
46211;BME280;52144;48.040;-1.594;2022-08-21T06:41:06;101262.25;;;18.59;100.00
46211;BME280;52144;48.040;-1.594;2022-08-21T06:43:35;101261.47;;;18.70;100.00
46211;BME280;52144;48.040;-1.594;2022-08-21T06:46:06;101259.03;;;18.67;100.00
46211;BME280;52144;48.040;-1.594;2022-08-21T06:48:34;101248.22;;;18.67;100.00
46211;BME280;52144;48.040;-1.594;2022-08-21T06:51:03;101252.97;;;18.89;100.00
46211;BME280;52144;48.040;-1.594;2022-08-21T06:53:30;101267.84;;;18.95;99.91
46211;BME280;52144;48.040;-1.594;2022-08-21T06:55:59;101271.09;;;18.74;100.00
46211;BME280;52144;48.040;-1.594;2022-08-21T06:58:27;101278.56;;;18.58;100.00
46211;BME280;52144;48.040;-1.594;2022-08-21T07:00:55;101281.13;;;18.34;100.00
46211;BME280;52144;48.040;-1.594;2022-08-21T07:03:30;101280.19;;;18.48;100.00
46211;BME280;52144;48.040;-1.594;2022-08-21T07:05:58;101265.06;;;18.71;100.00
46211;BME280;52144;48.040;-1.594;2022-08-21T07:08:27;101262.78;;;18.77;100.00
46211;BME280;52144;48.040;-1.594;2022-08-21T07:10:56;101268.94;;;19.05;100.00
46211;BME280;52144;48.040;-1.594;2022-08-21T07:13:24;101272.19;;;18.97;100.00
46211;BME280;52144;48.040;-1.594;2022-08-21T07:15:52;101264.59;;;19.15;100.00
46211;BME280;52144;48.040;-1.594;2022-08-21T07:18:20;101271.53;;;19.31;99.93
46211;BME280;52144;48.040;-1.594;2022-08-21T07:20:49;101270.34;;;19.35;100.00
46211;BME280;52144;48.040;-1.594;2022-08-21T07:23:22;101268.16;;;19.03;100.00
46211;BME280;52144;48.040;-1.594;2022-08-21T07:25:51;101270.91;;;19.27;100.00
46211;BME280;52144;48.040;-1.594;2022-08-21T07:28:19;101275.28;;;19.41;99.27
46211;BME280;52144;48.040;-1.594;2022-08-21T07:30:50;101259.06;;;19.41;99.34
46211;BME280;52144;48.040;-1.594;2022-08-21T07:33:19;101263.28;;;19.69;98.37
46211;BME280;52144;48.040;-1.594;2022-08-21T07:35:46;101258.53;;;19.73;97.58
46211;BME280;52144;48.040;-1.594;2022-08-21T07:38:16;101262.28;;;19.94;97.24
46211;BME280;52144;48.040;-1.594;2022-08-21T07:40:45;101260.38;;;20.19;95.47
46211;BME280;52144;48.040;-1.594;2022-08-21T07:43:12;101256.22;;;20.26;93.37
46211;BME280;52144;48.040;-1.594;2022-08-21T07:45:43;101252.59;;;20.50;94.48
46211;BME280;52144;48.040;-1.594;2022-08-21T07:48:11;101255.31;;;20.61;93.13
46211;BME280;52144;48.040;-1.594;2022-08-21T07:50:39;101251.88;;;20.59;94.79
46211;BME280;52144;48.040;-1.594;2022-08-21T07:53:08;101247.94;;;20.63;94.67
46211;BME280;52144;48.040;-1.594;2022-08-21T07:55:38;101253.31;;;20.52;94.90
46211;BME280;52144;48.040;-1.594;2022-08-21T07:58:06;101258.72;;;20.40;94.66
46211;BME280;52144;48.040;-1.594;2022-08-21T08:00:34;101251.66;;;20.27;97.06
46211;BME280;52144;48.040;-1.594;2022-08-21T08:03:01;101241.75;;;20.50;96.46
46211;BME280;52144;48.040;-1.594;2022-08-21T08:05:30;101242.00;;;20.58;94.83
46211;BME280;52144;48.040;-1.594;2022-08-21T08:07:59;101242.13;;;20.68;95.10
46211;BME280;52144;48.040;-1.594;2022-08-21T08:10:27;101258.41;;;20.79;95.07
46211;BME280;52144;48.040;-1.594;2022-08-21T08:12:56;101261.84;;;20.81;94.15
46211;BME280;52144;48.040;-1.594;2022-08-21T08:15:27;101258.63;;;20.87;92.82
46211;BME280;52144;48.040;-1.594;2022-08-21T08:17:58;101250.88;;;20.94;93.46
46211;BME280;52144;48.040;-1.594;2022-08-21T08:20:27;101241.88;;;20.82;94.91
46211;BME280;52144;48.040;-1.594;2022-08-21T08:22:55;101250.50;;;21.10;91.56
46211;BME280;52144;48.040;-1.594;2022-08-21T08:25:25;101252.34;;;21.09;91.64
46211;BME280;52144;48.040;-1.594;2022-08-21T08:27:59;101245.19;;;21.08;91.59
46211;BME280;52144;48.040;-1.594;2022-08-21T08:30:27;101249.63;;;21.09;91.68
46211;BME280;52144;48.040;-1.594;2022-08-21T08:32:58;101251.56;;;21.18;93.20
46211;BME280;52144;48.040;-1.594;2022-08-21T08:35:27;101240.72;;;21.30;91.23
46211;BME280;52144;48.040;-1.594;2022-08-21T08:37:56;101247.91;;;21.08;91.92
46211;BME280;52144;48.040;-1.594;2022-08-21T08:40:31;101252.00;;;20.91;93.39
46211;BME280;52144;48.040;-1.594;2022-08-21T08:43:05;101251.38;;;20.99;94.33
46211;BME280;52144;48.040;-1.594;2022-08-21T08:45:37;101245.34;;;21.07;92.28
46211;BME280;52144;48.040;-1.594;2022-08-21T08:48:10;101240.16;;;21.03;91.39
46211;BME280;52144;48.040;-1.594;2022-08-21T08:50:41;101248.56;;;21.33;92.07
46211;BME280;52144;48.040;-1.594;2022-08-21T08:53:14;101256.84;;;21.75;89.57
46211;BME280;52144;48.040;-1.594;2022-08-21T08:55:44;101256.34;;;22.02;86.33
46211;BME280;52144;48.040;-1.594;2022-08-21T08:58:16;101253.72;;;21.91;83.62
46211;BME280;52144;48.040;-1.594;2022-08-21T09:00:47;101256.97;;;21.73;82.19
46211;BME280;52144;48.040;-1.594;2022-08-21T09:03:17;101246.94;;;21.64;83.65
46211;BME280;52144;48.040;-1.594;2022-08-21T09:05:50;101242.34;;;21.64;83.97
46211;BME280;52144;48.040;-1.594;2022-08-21T09:08:46;101249.03;;;21.60;83.81
46211;BME280;52144;48.040;-1.594;2022-08-21T09:11:27;101248.41;;;21.89;83.44
46211;BME280;52144;48.040;-1.594;2022-08-21T09:14:06;101238.13;;;22.25;81.39
46211;BME280;52144;48.040;-1.594;2022-08-21T09:16:43;101244.78;;;22.21;81.86
46211;BME280;52144;48.040;-1.594;2022-08-21T09:19:28;101244.91;;;22.19;80.51
46211;BME280;52144;48.040;-1.594;2022-08-21T09:22:08;101239.34;;;22.21;82.12
46211;BME280;52144;48.040;-1.594;2022-08-21T09:24:44;101238.28;;;22.12;81.01
46211;BME280;52144;48.040;-1.594;2022-08-21T09:27:18;101236.81;;;21.87;80.40
46211;BME280;52144;48.040;-1.594;2022-08-21T09:29:52;101242.66;;;22.24;81.42
46211;BME280;52144;48.040;-1.594;2022-08-21T09:32:23;101235.59;;;22.33;81.31
46211;BME280;52144;48.040;-1.594;2022-08-21T09:35:10;101236.88;;;22.60;80.76
46211;BME280;52144;48.040;-1.594;2022-08-21T09:37:49;101229.50;;;22.72;77.04
46211;BME280;52144;48.040;-1.594;2022-08-21T09:40:26;101225.72;;;22.63;76.83
46211;BME280;52144;48.040;-1.594;2022-08-21T09:42:59;101233.06;;;22.72;79.39
46211;BME280;52144;48.040;-1.594;2022-08-21T09:45:29;101245.41;;;22.86;78.32
46211;BME280;52144;48.040;-1.594;2022-08-21T09:48:11;101233.84;;;22.94;77.38
46211;BME280;52144;48.040;-1.594;2022-08-21T09:50:40;101235.63;;;23.05;77.77
46211;BME280;52144;48.040;-1.594;2022-08-21T09:53:16;101243.41;;;23.19;76.83
46211;BME280;52144;48.040;-1.594;2022-08-21T09:55:51;101239.97;;;23.27;74.74
46211;BME280;52144;48.040;-1.594;2022-08-21T09:58:38;101239.41;;;23.33;73.38
46211;BME280;52144;48.040;-1.594;2022-08-21T10:01:14;101242.84;;;23.54;74.43
46211;BME280;52144;48.040;-1.594;2022-08-21T10:03:43;101241.56;;;23.58;73.54
46211;BME280;52144;48.040;-1.594;2022-08-21T10:06:22;101245.72;;;23.62;72.69
46211;BME280;52144;48.040;-1.594;2022-08-21T10:08:50;101248.81;;;23.09;76.09
46211;BME280;52144;48.040;-1.594;2022-08-21T10:11:26;101242.28;;;23.31;75.93
46211;BME280;52144;48.040;-1.594;2022-08-21T10:14:02;101240.59;;;23.59;76.34
46211;BME280;52144;48.040;-1.594;2022-08-21T10:16:43;101235.28;;;23.48;75.94
46211;BME280;52144;48.040;-1.594;2022-08-21T10:19:20;101239.38;;;23.13;76.07
46211;BME280;52144;48.040;-1.594;2022-08-21T10:21:59;101239.16;;;23.55;77.39
46211;BME280;52144;48.040;-1.594;2022-08-21T10:24:30;101233.19;;;23.01;76.92
46211;BME280;52144;48.040;-1.594;2022-08-21T10:27:08;101228.78;;;22.70;78.80
46211;BME280;52144;48.040;-1.594;2022-08-21T10:29:47;101228.53;;;22.52;80.67
46211;BME280;52144;48.040;-1.594;2022-08-21T10:32:31;101229.44;;;22.62;80.61
46211;BME280;52144;48.040;-1.594;2022-08-21T10:35:08;101240.31;;;22.62;81.91
46211;BME280;52144;48.040;-1.594;2022-08-21T10:37:46;101232.59;;;22.15;84.77
46211;BME280;52144;48.040;-1.594;2022-08-21T10:40:22;101233.72;;;22.13;84.86
46211;BME280;52144;48.040;-1.594;2022-08-21T10:43:02;101234.78;;;22.42;83.58
46211;BME280;52144;48.040;-1.594;2022-08-21T10:45:38;101248.13;;;22.96;82.13
46211;BME280;52144;48.040;-1.594;2022-08-21T10:48:17;101238.50;;;23.03;84.37
46211;BME280;52144;48.040;-1.594;2022-08-21T10:50:51;101241.75;;;22.66;82.69
46211;BME280;52144;48.040;-1.594;2022-08-21T10:53:33;101249.63;;;22.38;86.18
46211;BME280;52144;48.040;-1.594;2022-08-21T10:56:13;101251.44;;;22.59;84.20
46211;BME280;52144;48.040;-1.594;2022-08-21T10:58:48;101254.84;;;23.22;83.21
46211;BME280;52144;48.040;-1.594;2022-08-21T11:01:19;101262.59;;;23.27;81.98
46211;BME280;52144;48.040;-1.594;2022-08-21T11:03:54;101253.56;;;22.96;80.54
46211;BME280;52144;48.040;-1.594;2022-08-21T11:06:29;101259.47;;;23.01;82.31
46211;BME280;52144;48.040;-1.594;2022-08-21T11:09:11;101262.16;;;22.60;83.88
46211;BME280;52144;48.040;-1.594;2022-08-21T11:11:42;101251.44;;;22.59;83.47
46211;BME280;52144;48.040;-1.594;2022-08-21T11:14:36;101249.19;;;22.64;84.07
46211;BME280;52144;48.040;-1.594;2022-08-21T11:17:18;101249.34;;;23.03;83.19
46211;BME280;52144;48.040;-1.594;2022-08-21T11:19:54;101246.09;;;22.78;85.55
46211;BME280;52144;48.040;-1.594;2022-08-21T11:22:33;101246.28;;;22.14;86.45
46211;BME280;52144;48.040;-1.594;2022-08-21T11:25:09;101242.88;;;22.33;87.99
46211;BME280;52144;48.040;-1.594;2022-08-21T11:27:43;101235.91;;;22.40;87.05
46211;BME280;52144;48.040;-1.594;2022-08-21T11:30:13;101245.16;;;22.58;86.48
46211;BME280;52144;48.040;-1.594;2022-08-21T11:33:04;101241.69;;;22.26;86.13
46211;BME280;52144;48.040;-1.594;2022-08-21T11:35:39;101250.69;;;22.26;86.14
46211;BME280;52144;48.040;-1.594;2022-08-21T11:38:26;101244.47;;;22.35;85.22
46211;BME280;52144;48.040;-1.594;2022-08-21T11:41:05;101248.00;;;22.57;84.87
46211;BME280;52144;48.040;-1.594;2022-08-21T11:43:39;101250.53;;;22.49;89.82
46211;BME280;52144;48.040;-1.594;2022-08-21T11:46:15;101248.22;;;22.44;93.00
46211;BME280;52144;48.040;-1.594;2022-08-21T11:48:52;101252.13;;;22.30;97.10
46211;BME280;52144;48.040;-1.594;2022-08-21T11:51:31;101248.00;;;21.73;98.28
46211;BME280;52144;48.040;-1.594;2022-08-21T11:54:05;101264.31;;;22.15;100.00
46211;BME280;52144;48.040;-1.594;2022-08-21T11:56:38;101272.38;;;21.84;100.00
46211;BME280;52144;48.040;-1.594;2022-08-21T11:59:11;101267.50;;;21.55;100.00
46211;BME280;52144;48.040;-1.594;2022-08-21T12:01:43;101265.34;;;21.27;100.00
46211;BME280;52144;48.040;-1.594;2022-08-21T12:04:18;101261.09;;;20.90;100.00
46211;BME280;52144;48.040;-1.594;2022-08-21T12:06:53;101255.81;;;20.89;100.00
46211;BME280;52144;48.040;-1.594;2022-08-21T12:09:38;101256.69;;;20.67;100.00
46211;BME280;52144;48.040;-1.594;2022-08-21T12:12:11;101256.91;;;21.09;100.00
46211;BME280;52144;48.040;-1.594;2022-08-21T12:14:43;101266.75;;;21.10;100.00
46211;BME280;52144;48.040;-1.594;2022-08-21T12:17:18;101262.69;;;20.81;100.00
46211;BME280;52144;48.040;-1.594;2022-08-21T12:19:57;101266.16;;;20.83;100.00
46211;BME280;52144;48.040;-1.594;2022-08-21T12:22:38;101263.44;;;20.95;100.00
46211;BME280;52144;48.040;-1.594;2022-08-21T12:25:10;101259.88;;;20.60;100.00
46211;BME280;52144;48.040;-1.594;2022-08-21T12:27:46;101260.50;;;20.87;100.00
46211;BME280;52144;48.040;-1.594;2022-08-21T12:30:32;101254.84;;;20.78;100.00
46211;BME280;52144;48.040;-1.594;2022-08-21T12:33:02;101255.25;;;21.29;100.00
46211;BME280;52144;48.040;-1.594;2022-08-21T12:35:33;101258.16;;;21.04;100.00
46211;BME280;52144;48.040;-1.594;2022-08-21T12:38:08;101245.69;;;21.13;100.00
46211;BME280;52144;48.040;-1.594;2022-08-21T12:40:42;101244.72;;;21.58;100.00
46211;BME280;52144;48.040;-1.594;2022-08-21T12:43:15;101239.41;;;21.68;100.00
46211;BME280;52144;48.040;-1.594;2022-08-21T12:45:47;101242.53;;;21.84;100.00
46211;BME280;52144;48.040;-1.594;2022-08-21T12:48:18;101232.13;;;21.89;100.00
46211;BME280;52144;48.040;-1.594;2022-08-21T12:50:52;101241.13;;;21.57;100.00
46211;BME280;52144;48.040;-1.594;2022-08-21T12:53:28;101240.41;;;21.55;100.00
46211;BME280;52144;48.040;-1.594;2022-08-21T12:56:01;101235.13;;;21.54;100.00